createdAt,value
2023-02-15T00:01:25.157Z,0.6
2023-02-15T00:07:02.302Z,0.4
2023-02-15T00:12:39.724Z,0.8
2023-02-15T00:18:01.716Z,0.9
2023-02-15T00:23:38.549Z,0.8
2023-02-15T00:29:16.134Z,0.4
2023-02-15T00:34:53.943Z,0.5
2023-02-15T00:40:16.004Z,0.4
2023-02-15T00:50:58.835Z,0.4
2023-02-15T00:56:37.086Z,0.6
2023-02-15T01:02:15.389Z,0.5
2023-02-15T01:07:54.436Z,0.6
2023-02-15T01:13:31.674Z,0.7
2023-02-15T01:19:09.957Z,0.6
2023-02-15T01:24:15.352Z,0.6
2023-02-15T01:29:36.715Z,0.7
2023-02-15T01:35:15.148Z,0.5
2023-02-15T01:40:52.039Z,0.6
2023-02-15T01:46:29.264Z,0.4
2023-02-15T01:52:07.952Z,0.4
2023-02-15T01:57:45.102Z,0.6
2023-02-15T02:03:22.124Z,0.8
2023-02-15T02:08:44.842Z,0.6
2023-02-15T02:14:20.390Z,0.3
2023-02-15T02:19:58.475Z,0.1
2023-02-15T02:25:21.069Z,-0.1
2023-02-15T02:30:58.329Z,-0.1
2023-02-15T02:36:05.080Z,0
2023-02-15T02:41:27.047Z,-0.1
2023-02-15T02:46:48.773Z,-0.1
2023-02-15T02:52:26.455Z,0
2023-02-15T02:58:04.638Z,0.3
2023-02-15T03:03:42.343Z,0.3
2023-02-15T03:09:19.158Z,0.4
2023-02-15T03:14:56.246Z,0.6
2023-02-15T03:20:33.263Z,0.6
2023-02-15T03:26:12.621Z,0.7
2023-02-15T03:31:50.838Z,0.8
2023-02-15T03:37:43.656Z,0.8
2023-02-15T03:43:06.221Z,1.1
2023-02-15T03:48:44.415Z,1.1
2023-02-15T03:54:05.098Z,1.2
2023-02-15T03:59:27.833Z,1.3
2023-02-15T04:04:50.898Z,1.1
2023-02-15T04:10:27.899Z,1.2
2023-02-15T04:15:50.798Z,1.4
2023-02-15T04:21:30.363Z,1.4
2023-02-15T04:26:53.263Z,1.4
2023-02-15T04:32:31.399Z,1.4
2023-02-15T04:37:53.635Z,1.5
2023-02-15T04:43:30.108Z,1.4
2023-02-15T04:49:07.563Z,1.4
2023-02-15T04:54:31.088Z,1.4
2023-02-15T05:00:07.457Z,1.4
2023-02-15T05:05:45.054Z,1.5
2023-02-15T05:11:22.765Z,1.5
2023-02-15T05:16:45.012Z,1.5
2023-02-15T05:22:22.020Z,1.5
2023-02-15T05:27:59.227Z,1.5
2023-02-15T05:33:23.165Z,1.5
2023-02-15T05:38:45.279Z,1.6
2023-02-15T05:44:22.630Z,1.6
2023-02-15T05:50:00.595Z,1.7
2023-02-15T05:55:21.941Z,1.7
2023-02-15T06:00:43.788Z,1.8
2023-02-15T06:06:22.295Z,1.8
2023-02-15T06:12:04.426Z,1.9
2023-02-15T06:17:42.047Z,2
2023-02-15T06:23:18.253Z,2.1
2023-02-15T06:28:55.178Z,2.1
2023-02-15T06:34:33.590Z,2.1
2023-02-15T06:40:10.692Z,2.2
2023-02-15T06:45:32.991Z,2.3
2023-02-15T06:51:11.231Z,2.4
2023-02-15T06:56:48.544Z,2.5
2023-02-15T07:02:26.309Z,2.6
2023-02-15T07:08:03.987Z,2.6
2023-02-15T07:13:41.397Z,2.7
2023-02-15T07:19:37.055Z,2.8
2023-02-15T07:24:58.929Z,3
2023-02-15T07:30:38.002Z,3
2023-02-15T07:36:00.948Z,3.2
2023-02-15T07:41:38.763Z,3.1
2023-02-15T07:47:16.384Z,3.4
2023-02-15T07:52:56.828Z,3.4
2023-02-15T07:58:05.631Z,3.6
2023-02-15T08:03:28.055Z,3.5
2023-02-15T08:08:50.232Z,3.7
2023-02-15T08:14:28.489Z,3.7
2023-02-15T08:20:06.852Z,3.9
2023-02-15T08:25:44.473Z,4
2023-02-15T08:31:08.999Z,3.9
2023-02-15T08:36:46.423Z,4
2023-02-15T08:42:24.299Z,4.1
2023-02-15T08:47:46.313Z,4.6
2023-02-15T08:53:23.663Z,4.4
2023-02-15T08:59:01.690Z,4.8
2023-02-15T09:04:40.028Z,4.6
2023-02-15T09:10:01.527Z,4.9
2023-02-15T09:15:42.067Z,5.1
2023-02-15T09:21:19.956Z,4.8
2023-02-15T09:27:08.897Z,5.3
2023-02-15T09:32:47.805Z,5
2023-02-15T09:38:40.259Z,4.8
2023-02-15T09:44:19.261Z,5.1
2023-02-15T09:49:57.864Z,5.3
2023-02-15T09:55:35.849Z,5.3
2023-02-15T10:01:12.588Z,5.6
2023-02-15T10:06:35.234Z,5.2
2023-02-15T10:12:26.676Z,5.4
2023-02-15T10:17:47.937Z,5.8
2023-02-15T10:23:26.911Z,5.6
2023-02-15T10:29:04.347Z,6.1
2023-02-15T10:34:42.170Z,5.7
2023-02-15T10:39:49.021Z,5.5
2023-02-15T10:45:12.620Z,5.4
2023-02-15T10:50:53.671Z,6.1
2023-02-15T10:56:31.582Z,7
2023-02-15T11:02:09.461Z,6.8
2023-02-15T11:07:45.921Z,6.1
2023-02-15T11:13:27.276Z,5.8
2023-02-15T11:19:05.325Z,6.2
2023-02-15T11:24:42.034Z,6.4
2023-02-15T11:30:22.110Z,6.6
2023-02-15T11:36:01.159Z,6.6
2023-02-15T11:41:23.082Z,6.7
2023-02-15T11:47:02.932Z,6.7
2023-02-15T11:52:12.652Z,6.5
2023-02-15T11:57:35.373Z,6.9
2023-02-15T12:03:13.346Z,6.8
2023-02-15T12:08:51.073Z,7.5
2023-02-15T12:14:28.806Z,7
2023-02-15T12:20:09.817Z,7.1
2023-02-15T12:25:20.042Z,6.9
2023-02-15T12:30:43.141Z,6.7
2023-02-15T12:36:08.268Z,7.3
2023-02-15T12:41:52.594Z,7.1
2023-02-15T12:47:31.200Z,7.3
2023-02-15T12:53:13.462Z,7.9
2023-02-15T12:58:58.700Z,7.9
2023-02-15T13:04:36.197Z,8.1
2023-02-15T13:10:16.922Z,8.4
2023-02-15T13:15:38.702Z,7.9
2023-02-15T13:21:01.034Z,8.1
2023-02-15T13:26:39.010Z,7.8
2023-02-15T13:32:31.032Z,7.6
2023-02-15T13:38:22.572Z,7.8
2023-02-15T13:43:44.875Z,7.7
2023-02-15T13:49:37.088Z,7.9
2023-02-15T13:55:13.089Z,8.2
2023-02-15T14:00:50.384Z,7.3
2023-02-15T14:06:13.900Z,7.3
2023-02-15T14:11:35.202Z,6.8
2023-02-15T14:17:06.483Z,6.8
2023-02-15T14:22:29.977Z,6.8
2023-02-15T14:28:09.445Z,6.8
2023-02-15T14:33:52.230Z,6.8
2023-02-15T14:39:31.217Z,6.3
2023-02-15T14:45:08.352Z,6.6
2023-02-15T14:50:46.614Z,6.2
2023-02-15T14:56:24.555Z,6.2
2023-02-15T15:02:04.622Z,6.2
2023-02-15T15:07:45.354Z,6.2
2023-02-15T15:13:25.564Z,5.8
2023-02-15T15:19:04.529Z,5.5
2023-02-15T15:24:55.159Z,5.3
2023-02-15T15:30:33.907Z,4.9
2023-02-15T15:36:11.473Z,4.9
2023-02-15T15:41:47.921Z,4.6
2023-02-15T15:47:24.952Z,4.3
2023-02-15T15:52:55.552Z,3.9
2023-02-15T15:58:18.859Z,3.7
2023-02-15T16:03:42.229Z,3.4
2023-02-15T16:09:03.114Z,3.3
2023-02-15T16:14:41.269Z,3.1
2023-02-15T16:20:04.446Z,2.9
2023-02-15T16:25:43.584Z,2.8
2023-02-15T16:31:21.714Z,2.7
2023-02-15T16:36:59.205Z,2.4
2023-02-15T16:42:22.096Z,2.2
2023-02-15T16:47:59.494Z,2.2
2023-02-15T16:53:38.040Z,2.2
2023-02-15T16:59:14.402Z,2.1
2023-02-15T17:05:15.448Z,2.1
2023-02-15T17:10:41.151Z,2.4
2023-02-15T17:16:04.476Z,2.4
2023-02-15T17:21:27.886Z,2.4
2023-02-15T17:27:05.984Z,2.3
2023-02-15T17:32:46.280Z,2
2023-02-15T17:38:23.697Z,1.8
2023-02-15T17:44:02.299Z,1.5
2023-02-15T17:49:39.523Z,1.5
2023-02-15T17:55:18.424Z,1.4
2023-02-15T18:00:43.262Z,1.4
2023-02-15T18:06:04.962Z,1.3
2023-02-15T18:11:42.617Z,1.1
2023-02-15T18:17:19.623Z,1.1
2023-02-15T18:22:57.296Z,1.1
2023-02-15T18:28:34.500Z,1.1
2023-02-15T18:34:12.925Z,1.1
2023-02-15T18:39:49.498Z,1.1
2023-02-15T18:45:27.865Z,1
2023-02-15T18:51:05.709Z,1
2023-02-15T18:56:42.152Z,1
2023-02-15T19:02:18.858Z,1.1
2023-02-15T19:07:56.577Z,1
2023-02-15T19:13:17.845Z,1
2023-02-15T19:18:58.157Z,0.9
2023-02-15T19:24:35.112Z,0.7
2023-02-15T19:30:26.022Z,0.1
2023-02-15T19:36:06.531Z,-0.5
2023-02-15T19:41:44.077Z,-0.8
2023-02-15T19:47:24.410Z,-0.8
2023-02-15T19:53:04.029Z,-1
2023-02-15T19:58:45.241Z,-1
2023-02-15T20:04:21.320Z,-1
2023-02-15T20:10:14.374Z,-1.3
2023-02-15T20:15:51.584Z,-1.2
2023-02-15T20:21:30.244Z,-1.1
2023-02-15T20:27:07.337Z,-1.2
2023-02-15T20:32:46.060Z,-1.2
2023-02-15T20:38:24.540Z,-1.2
2023-02-15T20:44:02.161Z,-1.4
2023-02-15T20:49:40.139Z,-1.3
2023-02-15T20:55:18.068Z,-1.3
2023-02-15T21:00:54.872Z,-1.3
2023-02-15T21:06:33.261Z,-1.3
2023-02-15T21:11:39.601Z,-1.4
2023-02-15T21:17:17.193Z,-1.5
2023-02-15T21:22:54.365Z,-1.5
2023-02-15T21:28:15.446Z,-1.7
2023-02-15T21:33:53.829Z,-1.7
2023-02-15T21:39:14.945Z,-1.9
2023-02-15T21:44:38.972Z,-2.1
2023-02-15T21:50:00.998Z,-1.6
2023-02-15T21:55:38.103Z,-1.7
2023-02-15T22:01:15.929Z,-1.8
2023-02-15T22:06:38.507Z,-1.8
2023-02-15T22:12:15.949Z,-1.8
2023-02-15T22:17:37.400Z,-2
2023-02-15T22:23:14.408Z,-2.1
2023-02-15T22:28:51.403Z,-2.3
2023-02-15T22:34:29.306Z,-2.4
2023-02-15T22:39:51.495Z,-2.4
2023-02-15T22:45:29.527Z,-2.1
2023-02-15T22:51:10.572Z,-2.1
2023-02-15T22:56:32.832Z,-2.3
2023-02-15T23:01:54.883Z,-2.6
2023-02-15T23:07:01.686Z,-2.6
2023-02-15T23:12:08.124Z,-2.3
2023-02-15T23:17:15.028Z,-2.4
2023-02-15T23:27:58.801Z,-2.5
2023-02-15T23:33:07.947Z,-2.4
2023-02-15T23:38:44.772Z,-3
2023-02-15T23:44:07.208Z,-2.7
2023-02-15T23:49:44.704Z,-2.6
2023-02-15T23:55:21.521Z,-2.8
